Time;durP1;ratioP1;P1;durP2;ratioP2;P2;SDS_P1;SDS_P2;PMS_P1;PMS_P2;Temp;Humidity;BMP_temperature;BMP_pressure;BME280_temperature;BME280_humidity;BME280_pressure;Samples;Min_cycle;Max_cycle;Signal;HPM_P1;HPM_P2
2022/04/01 00:02:24;;;;;;;4.05;2.20;;;4.50;90.70;;;;;;4974511;28;20058;-74
2022/04/01 00:04:50;;;;;;;6.30;2.50;;;4.50;91.10;;;;;;4991745;28;20030;-76
2022/04/01 00:07:15;;;;;;;5.65;2.53;;;4.40;91.70;;;;;;4992124;28;20436;-77
2022/04/01 00:09:41;;;;;;;6.88;2.38;;;4.40;91.90;;;;;;4991540;28;20038;-76
2022/04/01 00:12:08;;;;;;;19.38;2.65;;;4.40;92.60;;;;;;4991442;28;20023;-76
2022/04/01 00:14:34;;;;;;;6.57;2.50;;;4.30;92.90;;;;;;4991684;28;20027;-75
2022/04/01 00:17:00;;;;;;;9.02;2.55;;;4.10;93.10;;;;;;4991648;28;20041;-76
2022/04/01 00:19:26;;;;;;;5.72;2.60;;;4.20;93.50;;;;;;4991901;28;20023;-75
2022/04/01 00:21:53;;;;;;;6.47;2.10;;;4.10;93.50;;;;;;4991726;28;20054;-76
2022/04/01 00:24:19;;;;;;;5.88;2.55;;;4.10;94.00;;;;;;4991570;28;20113;-75
2022/04/01 00:26:45;;;;;;;5.82;2.78;;;4.10;94.10;;;;;;4991463;28;20114;-74
2022/04/01 00:29:15;;;;;;;7.57;2.97;;;4.00;94.30;;;;;;4990366;28;20030;-76
2022/04/01 00:31:48;;;;;;;5.15;2.72;;;3.90;94.80;;;;;;4973945;28;20037;-76
2022/04/01 00:34:15;;;;;;;6.07;2.47;;;3.90;95.00;;;;;;4992146;28;20022;-76
2022/04/01 00:36:48;;;;;;;7.57;2.45;;;3.90;95.20;;;;;;4990347;28;20057;-76
2022/04/01 00:39:16;;;;;;;6.25;2.60;;;3.90;95.20;;;;;;4991442;28;20037;-76
2022/04/01 00:41:44;;;;;;;7.90;3.25;;;3.80;95.50;;;;;;4991587;28;20035;-75
2022/04/01 00:44:22;;;;;;;7.40;2.97;;;3.80;95.60;;;;;;4991205;28;20058;-76
2022/04/01 00:46:53;;;;;;;6.25;2.78;;;3.80;95.80;;;;;;4991134;28;20104;-75
2022/04/01 00:49:20;;;;;;;4.43;2.65;;;3.70;95.90;;;;;;4992038;28;20023;-77
2022/04/01 00:51:47;;;;;;;4.57;2.40;;;3.80;96.20;;;;;;4973876;28;20038;-75
2022/04/01 00:54:14;;;;;;;8.38;2.90;;;3.70;96.10;;;;;;4991427;28;20038;-75
2022/04/01 00:56:40;;;;;;;7.93;2.63;;;3.60;96.30;;;;;;4978018;28;20034;-76
2022/04/01 00:59:08;;;;;;;4.15;2.35;;;3.70;96.40;;;;;;4994938;28;20026;-75
2022/04/01 01:01:34;;;;;;;5.30;2.95;;;3.70;96.60;;;;;;4995259;28;20026;-75
2022/04/01 01:04:02;;;;;;;3.90;2.60;;;3.70;96.60;;;;;;4995459;28;20420;-77
2022/04/01 01:06:29;;;;;;;5.72;2.90;;;3.70;96.60;;;;;;4994943;28;20030;-76
2022/04/01 01:08:56;;;;;;;4.60;2.70;;;3.70;96.40;;;;;;4994958;28;20081;-77
2022/04/01 01:11:21;;;;;;;7.63;2.60;;;3.70;96.30;;;;;;4994695;28;20038;-76
2022/04/01 01:13:47;;;;;;;4.03;2.10;;;3.70;96.50;;;;;;4994806;28;20023;-75
2022/04/01 01:16:13;;;;;;;5.47;2.72;;;3.70;96.40;;;;;;4995146;28;20435;-75
2022/04/01 01:18:39;;;;;;;7.05;2.80;;;3.70;96.40;;;;;;4994656;28;20034;-77
2022/04/01 01:21:09;;;;;;;7.95;3.08;;;3.80;96.30;;;;;;4994604;28;20097;-75
2022/04/01 01:23:36;;;;;;;5.00;2.63;;;3.80;96.40;;;;;;4993569;28;20038;-77
2022/04/01 01:26:05;;;;;;;5.00;2.85;;;3.70;96.40;;;;;;4994564;28;20397;-76
2022/04/01 01:28:31;;;;;;;6.47;2.75;;;3.70;96.50;;;;;;4994895;28;20033;-76
2022/04/01 01:30:57;;;;;;;6.82;2.85;;;3.70;96.50;;;;;;4994489;28;20031;-76
2022/04/01 01:33:25;;;;;;;4.18;2.75;;;3.70;96.50;;;;;;4994281;28;20034;-75
2022/04/01 01:35:51;;;;;;;6.68;2.92;;;3.80;96.40;;;;;;4993422;28;20089;-76
2022/04/01 01:38:17;;;;;;;4.15;2.70;;;3.80;96.30;;;;;;5016127;28;20021;-75
2022/04/01 01:40:43;;;;;;;5.63;2.95;;;3.70;96.40;;;;;;5016143;28;20451;-74
2022/04/01 01:43:08;;;;;;;7.78;2.85;;;3.70;96.60;;;;;;5034192;28;20025;-75
2022/04/01 01:45:35;;;;;;;4.72;2.88;;;3.70;96.60;;;;;;5016167;28;20044;-74
2022/04/01 01:48:00;;;;;;;4.70;2.50;;;3.70;96.80;;;;;;5033799;28;20030;-74
2022/04/01 01:55:54;;;;;;;7.80;3.00;;;3.80;96.60;;;;;;5034083;28;20060;-75
2022/04/01 01:58:20;;;;;;;6.55;3.25;;;3.70;96.50;;;;;;5034676;28;20475;-75
2022/04/01 02:00:46;;;;;;;6.55;2.90;;;3.70;96.60;;;;;;5033431;28;20022;-75
2022/04/01 02:03:12;;;;;;;4.25;2.88;;;3.70;96.50;;;;;;5033641;28;20056;-75
2022/04/01 02:05:38;;;;;;;5.68;3.60;;;3.70;96.50;;;;;;5033364;28;20029;-75
2022/04/01 02:08:05;;;;;;;5.88;2.97;;;3.70;96.60;;;;;;5033409;28;20029;-75
2022/04/01 02:10:31;;;;;;;5.10;2.75;;;3.60;96.70;;;;;;5033835;28;20021;-75
2022/04/01 02:12:58;;;;;;;6.65;2.88;;;3.60;96.90;;;;;;5033235;28;20026;-75
2022/04/01 02:15:27;;;;;;;5.68;2.95;;;3.60;96.90;;;;;;5033103;28;20053;-76
2022/04/01 02:17:52;;;;;;;6.10;3.08;;;3.60;96.90;;;;;;5033038;28;20037;-75
2022/04/01 02:20:19;;;;;;;6.38;3.17;;;3.60;96.90;;;;;;5015547;28;20316;-76
2022/04/01 02:22:44;;;;;;;4.32;2.45;;;3.50;97.00;;;;;;5032966;28;20018;-76
2022/04/01 02:25:13;;;;;;;6.65;3.10;;;3.60;97.00;;;;;;5033678;28;20125;-76
2022/04/01 02:27:39;;;;;;;3.85;2.92;;;3.50;97.10;;;;;;5033281;28;20079;-76
2022/04/01 02:30:12;;;;;;;7.55;3.15;;;3.50;97.30;;;;;;5032555;28;20033;-76
2022/04/01 02:32:42;;;;;;;6.47;3.13;;;3.50;97.30;;;;;;5032726;28;20091;-76
2022/04/01 02:35:11;;;;;;;9.93;3.42;;;3.50;97.20;;;;;;5032574;28;20056;-77
2022/04/01 02:37:37;;;;;;;6.32;3.05;;;3.50;97.50;;;;;;5032776;28;20022;-74
2022/04/01 02:40:04;;;;;;;4.90;3.22;;;3.50;97.50;;;;;;5033104;28;20095;-76
2022/04/01 02:42:30;;;;;;;5.82;3.38;;;3.40;97.50;;;;;;5032567;28;20091;-76
2022/04/01 02:44:56;;;;;;;8.45;3.28;;;3.30;97.70;;;;;;5032274;28;20033;-76
2022/04/01 02:47:22;;;;;;;7.05;3.28;;;3.30;97.80;;;;;;5032558;28;20033;-75
2022/04/01 02:49:47;;;;;;;6.93;3.70;;;3.30;97.90;;;;;;5014823;28;20539;-77
2022/04/01 02:52:13;;;;;;;9.18;3.40;;;3.40;97.90;;;;;;5032778;28;20101;-76
2022/04/01 02:54:39;;;;;;;11.60;3.13;;;3.30;97.70;;;;;;5032400;28;20412;-76
2022/04/01 02:57:05;;;;;;;8.68;3.60;;;3.30;97.80;;;;;;5032282;28;20108;-77
2022/04/01 02:59:30;;;;;;;8.23;3.28;;;3.30;98.00;;;;;;5032164;28;20033;-77
2022/04/01 03:01:56;;;;;;;6.93;3.15;;;3.30;97.80;;;;;;5031876;28;20091;-76
2022/04/01 03:04:22;;;;;;;14.80;3.08;;;3.40;97.90;;;;;;5032451;28;20021;-76
2022/04/01 03:06:48;;;;;;;6.35;3.40;;;3.30;97.80;;;;;;5032061;28;20641;-77
2022/04/01 03:09:14;;;;;;;8.40;3.28;;;3.30;97.90;;;;;;5014573;28;20029;-76
2022/04/01 03:11:42;;;;;;;6.93;3.75;;;3.30;97.80;;;;;;5031913;28;20041;-75
2022/04/01 03:14:09;;;;;;;10.77;3.40;;;3.30;97.80;;;;;;5031896;28;20360;-77
2022/04/01 03:16:37;;;;;;;5.95;2.83;;;3.20;97.90;;;;;;5031905;28;20275;-77
2022/04/01 03:19:04;;;;;;;8.98;3.33;;;3.20;98.00;;;;;;5014706;28;20059;-78
2022/04/01 03:21:30;;;;;;;4.97;3.00;;;3.20;98.10;;;;;;5014373;28;20041;-75
2022/04/01 03:23:56;;;;;;;7.88;3.38;;;3.20;98.00;;;;;;5031781;28;20479;-76
2022/04/01 03:26:22;;;;;;;7.25;3.58;;;3.20;97.90;;;;;;5031842;28;20033;-76
2022/04/01 03:28:48;;;;;;;5.68;3.20;;;3.20;97.90;;;;;;5031868;28;20477;-77
2022/04/01 03:31:15;;;;;;;7.93;3.22;;;3.20;98.10;;;;;;5014881;28;20048;-77
2022/04/01 03:33:41;;;;;;;9.63;3.70;;;3.20;98.00;;;;;;5014068;28;20112;-77
2022/04/01 03:36:11;;;;;;;7.50;4.28;;;3.20;97.90;;;;;;5014236;28;20026;-77
2022/04/01 03:38:38;;;;;;;5.00;3.13;;;3.20;97.80;;;;;;5031516;28;20034;-75
2022/04/01 03:41:08;;;;;;;8.13;3.63;;;3.20;97.90;;;;;;5031349;28;20021;-74
2022/04/01 03:43:35;;;;;;;6.00;3.67;;;3.20;97.80;;;;;;5031707;28;20022;-75
2022/04/01 03:46:11;;;;;;;8.88;3.72;;;3.20;97.90;;;;;;5014078;28;20041;-76
2022/04/01 03:49:03;;;;;;;4.68;3.35;;;3.20;98.00;;;;;;5013745;28;20021;-76
2022/04/01 03:51:30;;;;;;;5.95;3.10;;;3.20;98.10;;;;;;5031179;28;20040;-76
2022/04/01 03:54:01;;;;;;;10.35;3.35;;;3.20;98.20;;;;;;5031094;28;20167;-76
2022/04/01 03:56:31;;;;;;;11.27;3.80;;;3.50;98.20;;;;;;5031001;28;20324;-77
2022/04/01 03:59:02;;;;;;;5.68;3.42;;;3.30;98.00;;;;;;5031340;28;20025;-77
2022/04/01 04:01:28;;;;;;;8.20;3.15;;;3.30;98.00;;;;;;5031325;28;20355;-77
2022/04/01 04:03:57;;;;;;;4.35;3.10;;;3.50;98.10;;;;;;5030842;28;20041;-76
2022/04/01 04:06:24;;;;;;;7.90;3.53;;;3.30;98.00;;;;;;5030931;28;20057;-76
2022/04/01 04:08:55;;;;;;;5.38;3.30;;;3.40;97.90;;;;;;5013433;28;20072;-77
2022/04/01 04:11:28;;;;;;;5.85;3.30;;;3.40;98.00;;;;;;5030848;28;20034;-75
2022/04/01 04:13:55;;;;;;;4.70;2.78;;;3.40;98.00;;;;;;5030691;28;20022;-75
2022/04/01 04:16:30;;;;;;;7.22;2.95;;;3.40;97.90;;;;;;5031248;28;20047;-74
2022/04/01 04:19:09;;;;;;;9.85;3.53;;;3.40;97.80;;;;;;5013405;28;20033;-76
2022/04/01 04:21:49;;;;;;;8.85;3.20;;;3.40;97.80;;;;;;5013084;28;20103;-75
2022/04/01 04:24:25;;;;;;;5.45;2.60;;;3.50;97.70;;;;;;5030535;28;20045;-76
2022/04/01 04:26:51;;;;;;;6.90;3.05;;;3.60;97.70;;;;;;5030814;28;20045;-78
2022/04/01 04:29:18;;;;;;;12.50;2.92;;;3.50;97.60;;;;;;5029901;28;20180;-78
2022/04/01 04:31:59;;;;;;;6.45;3.15;;;3.50;97.70;;;;;;5030623;28;20041;-77
2022/04/01 04:34:43;;;;;;;7.43;3.22;;;3.50;97.60;;;;;;5031636;28;20052;-77
2022/04/01 04:37:11;;;;;;;5.93;2.95;;;3.60;97.60;;;;;;5013690;28;20034;-79
2022/04/01 04:39:38;;;;;;;6.50;3.03;;;3.60;97.50;;;;;;5013062;28;20037;-76
2022/04/01 04:42:05;;;;;;;6.60;3.00;;;3.50;97.50;;;;;;5031084;28;20026;-76
2022/04/01 04:44:37;;;;;;;4.23;2.57;;;3.60;97.50;;;;;;5013255;28;20080;-75
2022/04/01 04:47:05;;;;;;;8.18;3.33;;;3.60;97.50;;;;;;5031512;28;20057;-76
2022/04/01 04:49:32;;;;;;;5.93;3.35;;;3.60;97.40;;;;;;5013598;28;20025;-76
2022/04/01 04:51:59;;;;;;;5.70;3.08;;;3.60;97.40;;;;;;5030875;28;20033;-77
2022/04/01 04:54:26;;;;;;;9.10;3.47;;;3.70;97.50;;;;;;5012946;28;20116;-75
2022/04/01 04:56:53;;;;;;;7.28;3.08;;;3.70;97.50;;;;;;5030429;28;20072;-75
2022/04/01 04:59:20;;;;;;;10.65;3.80;;;3.70;97.40;;;;;;5030726;28;20025;-74
2022/04/01 05:02:02;;;;;;;11.00;3.40;;;3.80;97.30;;;;;;5013153;28;20053;-76
2022/04/01 05:04:57;;;;;;;7.55;2.90;;;3.70;97.20;;;;;;5030967;28;20065;-76
2022/04/01 05:07:50;;;;;;;6.97;3.20;;;3.70;97.10;;;;;;5019851;28;20044;-77
2022/04/01 05:10:26;;;;;;;5.80;3.33;;;3.70;97.10;;;;;;5030482;28;20052;-75
2022/04/01 05:13:02;;;;;;;8.80;3.28;;;3.70;97.10;;;;;;5012921;28;20041;-75
2022/04/01 05:15:34;;;;;;;9.88;3.67;;;3.60;97.00;;;;;;5030473;28;20316;-75
2022/04/01 05:18:14;;;;;;;14.30;3.30;;;3.80;97.20;;;;;;5030229;28;20426;-74
2022/04/01 05:20:59;;;;;;;9.82;3.47;;;3.70;97.10;;;;;;5030355;28;20037;-75
2022/04/01 05:23:50;;;;;;;8.32;3.58;;;3.70;97.00;;;;;;5030385;28;20026;-75
2022/04/01 05:26:20;;;;;;;7.97;3.60;;;3.70;97.10;;;;;;5030241;28;20550;-77
2022/04/01 05:28:51;;;;;;;9.45;3.30;;;3.70;97.00;;;;;;5030009;28;20026;-77
2022/04/01 05:31:25;;;;;;;6.00;2.85;;;3.70;96.70;;;;;;5030628;28;20096;-76
2022/04/01 05:34:03;;;;;;;14.18;3.67;;;3.70;96.70;;;;;;5012346;28;20022;-76
2022/04/01 05:36:29;;;;;;;;;;;3.90;96.80;;;;;;5030568;28;20402;-77
2022/04/01 05:38:57;;;;;;;7.65;3.17;;;3.70;96.70;;;;;;5030040;28;20366;-76
2022/04/01 05:41:22;;;;;;;6.50;3.42;;;3.70;96.50;;;;;;5027085;28;20408;-75
2022/04/01 05:43:50;;;;;;;7.90;3.28;;;3.70;96.70;;;;;;4996555;28;20541;-81
2022/04/01 05:46:17;;;;;;;7.80;3.43;;;3.70;96.50;;;;;;4996901;28;20018;-77
2022/04/01 05:48:43;;;;;;;9.53;3.57;;;3.70;96.60;;;;;;5014264;28;20137;-77
2022/04/01 05:51:15;;;;;;;9.25;3.90;;;3.50;96.50;;;;;;5013448;28;20267;-79
2022/04/01 05:53:46;;;;;;;13.10;4.13;;;3.80;96.70;;;;;;5013943;28;20030;-76
2022/04/01 05:56:14;;;;;;;10.85;3.95;;;3.60;96.50;;;;;;5013575;28;20168;-74
2022/04/01 05:58:40;;;;;;;8.65;3.05;;;3.60;96.50;;;;;;5013645;28;20507;-79
2022/04/01 06:01:35;;;;;;;9.77;3.63;;;3.50;96.40;;;;;;4996255;28;20022;-77
2022/04/01 06:04:32;;;;;;;7.43;3.70;;;3.40;96.30;;;;;;5012994;28;20555;-77
2022/04/01 06:07:09;;;;;;;8.15;3.17;;;3.50;96.50;;;;;;5013074;28;20034;-77
2022/04/01 06:09:42;;;;;;;15.23;4.13;;;3.60;96.50;;;;;;4995776;28;20464;-77
2022/04/01 06:12:26;;;;;;;12.02;4.00;;;3.60;96.40;;;;;;4993341;28;20034;-71
2022/04/01 06:15:19;;;;;;;7.63;3.50;;;3.50;96.70;;;;;;4992392;28;20034;-71
2022/04/01 06:18:05;;;;;;;8.90;3.60;;;3.60;96.70;;;;;;4993054;28;20030;-70
2022/04/01 06:20:34;;;;;;;10.52;3.53;;;3.60;96.50;;;;;;4993261;28;20042;-73
2022/04/01 06:23:20;;;;;;;5.95;3.22;;;3.60;96.30;;;;;;4992030;28;20034;-74
2022/04/01 06:25:57;;;;;;;11.27;3.50;;;3.50;96.30;;;;;;4993016;28;20034;-74
2022/04/01 06:28:25;;;;;;;10.40;4.25;;;3.50;96.10;;;;;;4993695;28;20478;-70
2022/04/01 06:30:54;;;;;;;9.88;3.92;;;3.50;96.40;;;;;;4992640;28;20317;-69
2022/04/01 06:33:48;;;;;;;10.82;3.05;;;3.40;96.30;;;;;;4992986;28;20069;-72
2022/04/01 06:36:20;;;;;;;8.85;3.80;;;3.40;96.20;;;;;;4992948;28;20034;-71
2022/04/01 06:38:57;;;;;;;11.00;3.40;;;3.40;96.40;;;;;;4992862;28;20121;-70
2022/04/01 06:41:35;;;;;;;9.90;4.43;;;3.50;96.40;;;;;;4992744;28;20110;-71
2022/04/01 06:44:01;;;;;;;8.45;4.28;;;3.50;96.50;;;;;;4992759;28;20042;-74
2022/04/01 06:46:27;;;;;;;9.85;3.53;;;3.60;96.20;;;;;;4991752;28;20428;-70
2022/04/01 06:48:53;;;;;;;8.82;4.50;;;3.60;96.10;;;;;;4992371;28;20532;-73
2022/04/01 06:51:19;;;;;;;8.38;4.65;;;3.60;96.20;;;;;;4992495;28;20077;-70
2022/04/01 06:53:44;;;;;;;11.18;4.57;;;3.60;96.10;;;;;;4991694;28;20042;-69
2022/04/01 06:56:10;;;;;;;9.18;3.95;;;3.60;96.20;;;;;;4992327;28;20507;-70
2022/04/01 06:58:35;;;;;;;8.73;3.60;;;3.70;96.00;;;;;;4991994;28;20033;-68
2022/04/01 07:01:03;;;;;;;11.25;3.95;;;3.60;95.80;;;;;;4992236;28;20125;-71
2022/04/01 07:03:35;;;;;;;12.02;4.20;;;3.60;95.60;;;;;;4991255;28;20137;-71
2022/04/01 07:06:02;;;;;;;6.65;3.35;;;3.70;95.60;;;;;;4992155;28;20037;-69
2022/04/01 07:08:35;;;;;;;9.05;4.18;;;3.70;95.50;;;;;;4992244;28;20133;-72
2022/04/01 07:11:01;;;;;;;8.02;3.45;;;3.80;95.30;;;;;;4991839;28;20376;-71
2022/04/01 07:13:27;;;;;;;9.73;4.03;;;3.80;95.20;;;;;;4993795;28;20061;-75
2022/04/01 07:15:53;;;;;;;8.77;2.88;;;3.80;95.10;;;;;;4991189;28;20088;-71
2022/04/01 07:18:21;;;;;;;8.50;3.28;;;3.80;94.90;;;;;;4990842;28;20030;-71
2022/04/01 07:20:47;;;;;;;9.13;3.88;;;3.90;94.70;;;;;;4991784;28;20038;-70
2022/04/01 07:23:15;;;;;;;10.15;4.07;;;3.90;94.80;;;;;;4991956;28;20030;-71
2022/04/01 07:25:40;;;;;;;9.70;4.40;;;3.90;94.40;;;;;;4991767;28;20018;-71
2022/04/01 07:28:09;;;;;;;10.35;3.65;;;4.00;94.00;;;;;;4992013;28;20073;-72
2022/04/01 07:30:36;;;;;;;9.70;3.53;;;4.00;93.80;;;;;;4991662;28;20507;-71
2022/04/01 07:33:03;;;;;;;8.50;3.75;;;4.00;93.70;;;;;;4991529;28;20349;-72
2022/04/01 07:35:30;;;;;;;9.48;4.32;;;4.10;93.70;;;;;;4991794;28;20379;-71
2022/04/01 07:37:56;;;;;;;8.63;3.83;;;4.20;93.50;;;;;;4992169;28;20046;-77
2022/04/01 07:40:24;;;;;;;8.77;3.70;;;4.20;93.30;;;;;;4991308;28;20026;-79
2022/04/01 07:42:50;;;;;;;8.65;3.60;;;4.30;92.60;;;;;;4991791;28;20037;-68
2022/04/01 07:45:17;;;;;;;5.68;3.80;;;4.40;92.60;;;;;;4991511;28;20042;-72
2022/04/01 07:47:44;;;;;;;10.35;3.45;;;4.50;92.10;;;;;;4991552;28;20045;-69
2022/04/01 07:50:12;;;;;;;7.67;3.43;;;4.50;92.40;;;;;;4991401;28;20085;-70
2022/04/01 07:52:40;;;;;;;10.50;3.20;;;4.60;92.10;;;;;;4991352;28;20031;-72
2022/04/01 07:55:07;;;;;;;10.07;3.83;;;4.70;91.80;;;;;;4991894;28;20038;-69
2022/04/01 07:57:33;;;;;;;7.63;2.90;;;4.90;92.50;;;;;;4991405;28;20369;-70
2022/04/01 07:59:59;;;;;;;19.33;7.07;;;5.00;91.50;;;;;;4991243;28;20449;-68
2022/04/01 08:02:24;;;;;;;10.00;4.57;;;4.90;91.60;;;;;;4973803;28;20062;-72
2022/04/01 08:04:50;;;;;;;7.90;3.47;;;5.00;91.70;;;;;;4990064;28;20030;-72
2022/04/01 08:07:16;;;;;;;12.13;3.90;;;5.10;91.50;;;;;;4991451;28;20527;-74
2022/04/01 08:09:42;;;;;;;11.93;4.45;;;5.20;91.70;;;;;;4991437;28;20038;-74
2022/04/01 08:12:08;;;;;;;9.68;3.65;;;5.30;91.40;;;;;;4990912;28;20101;-72
2022/04/01 08:14:36;;;;;;;8.88;3.92;;;5.30;91.10;;;;;;4989967;28;20382;-72
2022/04/01 08:17:02;;;;;;;9.43;3.55;;;5.30;91.10;;;;;;4990170;28;20050;-72
2022/04/01 08:19:28;;;;;;;14.02;3.83;;;5.30;90.90;;;;;;4990611;28;20029;-75
2022/04/01 08:21:57;;;;;;;9.65;3.83;;;5.40;91.40;;;;;;4992151;28;20026;-75
2022/04/01 08:24:24;;;;;;;7.20;3.20;;;5.50;91.40;;;;;;4992652;28;20030;-74
2022/04/01 08:26:50;;;;;;;10.10;3.42;;;5.50;91.10;;;;;;4991166;28;20177;-73
2022/04/01 08:29:16;;;;;;;6.93;3.15;;;5.50;90.80;;;;;;4990870;28;20031;-72
2022/04/01 08:31:42;;;;;;;9.10;3.30;;;5.50;90.70;;;;;;4991055;28;20089;-73
2022/04/01 08:34:09;;;;;;;9.77;3.92;;;5.60;90.90;;;;;;4991371;28;20031;-70
2022/04/01 08:36:34;;;;;;;8.98;3.38;;;5.60;90.50;;;;;;4990965;28;20030;-72
2022/04/01 08:39:00;;;;;;;10.05;3.03;;;5.70;90.70;;;;;;4991116;28;20368;-73
2022/04/01 08:41:25;;;;;;;6.70;3.22;;;5.80;90.60;;;;;;4990988;28;20447;-73
2022/04/01 08:43:53;;;;;;;7.32;3.65;;;5.80;90.50;;;;;;4989703;28;20523;-72
2022/04/01 08:46:20;;;;;;;9.90;4.73;;;5.70;90.10;;;;;;4991276;28;20028;-72
2022/04/01 08:48:46;;;;;;;10.63;3.93;;;5.60;89.80;;;;;;4990808;28;20551;-74
2022/04/01 08:51:13;;;;;;;11.73;4.50;;;5.70;90.50;;;;;;4989521;28;20356;-75
2022/04/01 08:53:42;;;;;;;7.25;3.45;;;5.80;90.70;;;;;;4990777;28;20058;-76
2022/04/01 08:56:08;;;;;;;12.68;3.58;;;5.80;90.00;;;;;;4990656;28;20065;-74
2022/04/01 08:58:34;;;;;;;6.13;3.28;;;5.90;90.10;;;;;;4990961;28;20031;-74
2022/04/01 09:01:02;;;;;;;5.93;3.22;;;6.00;90.20;;;;;;4990962;28;20109;-74
2022/04/01 09:03:28;;;;;;;8.00;3.38;;;6.00;89.70;;;;;;4990520;28;20077;-73
2022/04/01 09:05:57;;;;;;;8.50;3.55;;;6.00;89.80;;;;;;4989584;28;20106;-74
2022/04/01 09:08:33;;;;;;;7.00;3.53;;;6.10;89.70;;;;;;4990602;28;20231;-74
2022/04/01 09:11:18;;;;;;;7.75;3.75;;;6.10;88.20;;;;;;4990444;28;20053;-75
2022/04/01 09:13:44;;;;;;;9.70;3.72;;;6.00;88.10;;;;;;4990706;28;20029;-73
2022/04/01 09:16:32;;;;;;;7.03;3.67;;;6.20;88.90;;;;;;4992204;28;20022;-74
2022/04/01 09:18:59;;;;;;;19.00;7.18;;;6.30;89.90;;;;;;4993026;28;20046;-73
2022/04/01 09:21:30;;;;;;;7.63;3.60;;;6.40;89.00;;;;;;4992832;28;20468;-72
2022/04/01 09:23:57;;;;;;;9.18;3.72;;;6.50;87.60;;;;;;4994025;28;20058;-74
2022/04/01 09:26:37;;;;;;;8.10;3.47;;;6.40;86.70;;;;;;4993951;28;20026;-75
2022/04/01 09:29:05;;;;;;;6.50;3.33;;;6.50;87.10;;;;;;4993914;28;20030;-74
2022/04/01 09:31:36;;;;;;;7.13;2.97;;;6.60;86.90;;;;;;4994594;28;20030;-74
2022/04/01 09:34:06;;;;;;;7.50;3.38;;;6.60;86.40;;;;;;4993895;28;20546;-75
2022/04/01 09:36:39;;;;;;;13.52;4.00;;;6.80;87.10;;;;;;4993967;28;20030;-78
2022/04/01 09:39:10;;;;;;;5.45;3.45;;;6.80;86.40;;;;;;4992624;28;20039;-79
2022/04/01 09:41:42;;;;;;;9.45;4.05;;;6.80;86.50;;;;;;4993814;28;20042;-77
2022/04/01 09:44:23;;;;;;;9.00;3.67;;;6.80;85.90;;;;;;4994041;28;20037;-79
2022/04/01 09:46:57;;;;;;;8.23;3.17;;;6.80;85.50;;;;;;4994121;28;20110;-75
2022/04/01 09:49:42;;;;;;;8.27;2.78;;;6.90;84.70;;;;;;4994213;28;20026;-72
2022/04/01 09:52:18;;;;;;;6.97;3.53;;;7.10;84.80;;;;;;4993822;28;20046;-73
2022/04/01 09:54:49;;;;;;;12.30;3.15;;;7.10;85.00;;;;;;4993467;28;20464;-75
2022/04/01 09:57:18;;;;;;;11.35;4.30;;;7.10;83.50;;;;;;4992589;28;20058;-74
2022/04/01 09:59:45;;;;;;;8.00;3.30;;;7.10;82.60;;;;;;4994047;28;20034;-75
2022/04/01 10:02:11;;;;;;;11.23;3.40;;;7.20;84.20;;;;;;4992382;28;20499;-76
2022/04/01 10:04:37;;;;;;;6.82;3.47;;;7.30;84.20;;;;;;4993297;28;20284;-75
2022/04/01 10:07:03;;;;;;;9.57;4.18;;;7.30;82.30;;;;;;4993884;28;20054;-75
2022/04/01 10:09:30;;;;;;;5.40;2.78;;;7.30;82.30;;;;;;4993574;28;20022;-74
2022/04/01 10:12:00;;;;;;;5.15;2.50;;;7.40;81.00;;;;;;4993122;28;20073;-73
2022/04/01 10:14:27;;;;;;;8.70;3.47;;;7.40;80.50;;;;;;4992990;28;20133;-74
2022/04/01 10:16:55;;;;;;;8.05;3.30;;;7.50;79.50;;;;;;4993800;28;20092;-75
2022/04/01 10:19:28;;;;;;;8.18;2.60;;;7.40;78.50;;;;;;4996427;28;20061;-75
2022/04/01 10:21:54;;;;;;;7.00;2.90;;;7.50;77.70;;;;;;4995757;28;20043;-77
2022/04/01 10:24:30;;;;;;;5.40;2.00;;;7.40;75.40;;;;;;4984547;28;20046;-81
2022/04/01 10:27:11;;;;;;;7.55;2.65;;;7.40;74.20;;;;;;4982093;28;20050;-78
2022/04/01 10:29:37;;;;;;;9.43;2.42;;;7.40;74.10;;;;;;4993617;28;20073;-75
2022/04/01 10:32:25;;;;;;;5.25;2.20;;;7.30;71.50;;;;;;4992908;28;20038;-74
2022/04/01 10:34:54;;;;;;;7.53;2.03;;;7.40;73.00;;;;;;4992949;28;20026;-77
2022/04/01 10:37:23;;;;;;;4.93;1.98;;;7.50;72.80;;;;;;4993518;28;20118;-77
2022/04/01 10:39:51;;;;;;;9.38;2.63;;;7.50;71.10;;;;;;4992852;28;20423;-75
2022/04/01 10:42:18;;;;;;;10.10;2.28;;;7.50;70.40;;;;;;4975908;28;20317;-83
2022/04/01 10:44:52;;;;;;;4.65;2.03;;;7.60;70.30;;;;;;4994378;28;20034;-84
2022/04/01 10:47:21;;;;;;;6.47;2.35;;;7.60;67.60;;;;;;4993516;28;20045;-75
2022/04/01 10:52:31;;;;;;;5.97;2.17;;;7.50;67.20;;;;;;4993459;28;20088;-76
2022/04/01 10:55:03;;;;;;;4.47;1.73;;;7.50;64.60;;;;;;4992721;28;20088;-74
2022/04/01 10:57:31;;;;;;;8.70;1.88;;;7.40;64.80;;;;;;4992793;28;20034;-74
2022/04/01 11:00:01;;;;;;;;;;;7.30;64.70;;;;;;4992020;28;20031;-75
2022/04/01 11:02:26;;;;;;;8.15;2.67;;;7.40;65.30;;;;;;4992102;28;20009;-76
2022/04/01 11:04:52;;;;;;;5.78;2.90;;;7.50;64.20;;;;;;4992557;28;20107;-81
2022/04/01 11:07:24;;;;;;;4.18;2.30;;;7.40;62.00;;;;;;4993105;28;20050;-79
2022/04/01 11:09:54;;;;;;;5.18;1.73;;;7.30;61.20;;;;;;4992470;28;20026;-79
2022/04/01 11:12:32;;;;;;;5.97;1.90;;;7.30;61.30;;;;;;4992191;28;20038;-74
2022/04/01 11:14:59;;;;;;;7.28;1.73;;;7.30;61.50;;;;;;4992225;28;20460;-73
2022/04/01 11:17:49;;;;;;;6.32;2.75;;;7.40;63.30;;;;;;4991844;28;20038;-75
2022/04/01 11:20:27;;;;;;;6.05;1.80;;;7.40;63.10;;;;;;4984447;28;20383;-76
2022/04/01 11:22:52;;;;;;;;;;;7.40;64.20;;;;;;4992393;28;20444;-73
2022/04/01 11:25:24;;;;;;;6.22;1.92;;;7.40;65.00;;;;;;4991243;28;19906;-74
2022/04/01 11:28:05;;;;;;;8.88;2.00;;;7.40;64.10;;;;;;4991638;28;20546;-74
2022/04/01 11:30:40;;;;;;;15.32;2.05;;;7.30;62.30;;;;;;4990547;28;20524;-74
2022/04/01 11:33:13;;;;;;;9.32;1.98;;;7.30;62.50;;;;;;4974199;28;20034;-76
2022/04/01 11:35:44;;;;;;;10.10;2.22;;;7.40;61.90;;;;;;4974513;28;20365;-75
2022/04/01 11:38:15;;;;;;;10.50;2.15;;;7.40;62.20;;;;;;4990156;28;20031;-75
2022/04/01 11:40:45;;;;;;;5.97;2.00;;;7.50;63.50;;;;;;4991640;28;20027;-75
2022/04/01 11:43:13;;;;;;;9.43;2.88;;;7.50;63.80;;;;;;4991856;28;20030;-74
2022/04/01 11:45:44;;;;;;;11.15;2.85;;;7.40;62.70;;;;;;4991591;28;20038;-76
2022/04/01 11:48:19;;;;;;;6.05;2.00;;;7.50;64.20;;;;;;4991522;28;20124;-73
2022/04/01 11:50:49;;;;;;;13.52;3.35;;;7.50;63.80;;;;;;4973527;28;20053;-73
2022/04/01 11:53:47;;;;;;;9.40;2.42;;;7.60;64.80;;;;;;4991483;28;20030;-73
2022/04/01 11:56:14;;;;;;;8.80;1.83;;;7.70;64.90;;;;;;4979966;28;20039;-74
2022/04/01 11:58:54;;;;;;;8.10;2.35;;;7.70;64.30;;;;;;4991455;28;20031;-75
2022/04/01 12:01:23;;;;;;;7.70;1.83;;;7.80;63.90;;;;;;4991723;28;20040;-73
2022/04/01 12:03:49;;;;;;;7.28;1.60;;;7.70;63.60;;;;;;4990980;28;20054;-76
2022/04/01 12:09:05;;;;;;;14.32;2.03;;;7.80;63.40;;;;;;4991360;28;20042;-74
2022/04/01 12:11:40;;;;;;;24.38;7.85;;;7.80;63.20;;;;;;4990047;28;20042;-75
2022/04/01 12:14:05;;;;;;;5.10;1.67;;;7.80;63.90;;;;;;4990985;28;20061;-75
2022/04/01 12:16:31;;;;;;;13.40;2.13;;;7.80;64.30;;;;;;4991490;28;20030;-73
2022/04/01 12:18:57;;;;;;;25.13;2.28;;;7.90;63.90;;;;;;4991207;28;20100;-75
2022/04/01 12:21:23;;;;;;;4.10;1.52;;;7.90;63.70;;;;;;4990987;28;20026;-76
2022/04/01 12:23:51;;;;;;;17.75;6.78;;;8.00;63.50;;;;;;4990690;28;20062;-76
2022/04/01 12:26:25;;;;;;;18.03;2.83;;;7.90;62.00;;;;;;4991343;28;20030;-75
2022/04/01 12:28:50;;;;;;;7.15;2.13;;;8.00;62.20;;;;;;4981480;28;20691;-80
2022/04/01 12:31:22;;;;;;;6.53;1.60;;;8.00;61.90;;;;;;4991185;28;20070;-80
2022/04/01 12:33:50;;;;;;;10.55;1.73;;;7.90;59.60;;;;;;4991106;28;20073;-74
2022/04/01 12:36:26;;;;;;;15.27;2.53;;;7.90;59.80;;;;;;4991007;28;20046;-75
2022/04/01 12:39:03;;;;;;;7.32;1.80;;;8.00;60.70;;;;;;4991124;28;20030;-74
2022/04/01 12:41:28;;;;;;;16.60;1.75;;;8.00;60.30;;;;;;4991146;28;20452;-75
2022/04/01 12:43:54;;;;;;;16.45;2.20;;;8.00;59.80;;;;;;4989985;28;20038;-75
2022/04/01 12:46:29;;;;;;;14.80;1.60;;;8.00;59.60;;;;;;4991255;28;20034;-75
2022/04/01 12:48:54;;;;;;;15.85;2.22;;;7.90;57.50;;;;;;4989645;28;20038;-75
2022/04/01 12:51:26;;;;;;;13.88;2.30;;;8.00;59.00;;;;;;4974985;28;20034;-75
2022/04/01 12:53:54;;;;;;;21.38;2.50;;;8.10;59.90;;;;;;4994908;28;20041;-75
2022/04/01 12:56:34;;;;;;;11.05;1.73;;;8.10;61.00;;;;;;4993855;28;20022;-73
2022/04/01 12:59:12;;;;;;;8.50;1.80;;;8.10;61.60;;;;;;4994682;28;20125;-73
2022/04/01 13:01:39;;;;;;;;;;;8.00;61.90;;;;;;4994929;28;20049;-73
2022/04/01 13:04:18;;;;;;;2.75;1.50;;;8.00;62.20;;;;;;4990507;28;20398;-75
2022/04/01 13:07:15;;;;;;;7.70;1.88;;;8.00;62.60;;;;;;4975247;28;20548;-74
2022/04/01 13:10:11;;;;;;;10.80;1.77;;;8.00;63.30;;;;;;4975126;28;20043;-75
2022/04/01 13:12:40;;;;;;;15.87;1.93;;;8.10;63.50;;;;;;4974315;28;20363;-76
2022/04/01 13:15:07;;;;;;;12.32;2.25;;;8.20;64.60;;;;;;4975212;28;20054;-73
2022/04/01 13:17:45;;;;;;;24.80;3.30;;;8.20;65.50;;;;;;4975160;28;20034;-77
2022/04/01 13:20:12;;;;;;;6.40;2.28;;;8.20;65.20;;;;;;4974939;28;20436;-81
2022/04/01 13:22:40;;;;;;;7.80;1.90;;;8.20;65.20;;;;;;4973757;28;20099;-80